createdAt,value
2023-01-04T00:01:04.158Z,10.00
2023-01-04T00:03:34.313Z,10.00
2023-01-04T00:06:03.349Z,9.90
2023-01-04T00:08:30.652Z,10.00
2023-01-04T00:11:12.922Z,10.00
2023-01-04T00:13:39.861Z,10.00
2023-01-04T00:16:14.002Z,10.10
2023-01-04T00:18:41.137Z,10.00
2023-01-04T00:21:14.223Z,10.00
2023-01-04T00:23:42.756Z,10.00
2023-01-04T00:26:16.165Z,10.00
2023-01-04T00:28:46.978Z,10.00
2023-01-04T00:31:17.841Z,10.00
2023-01-04T00:33:44.522Z,10.10
2023-01-04T00:36:13.551Z,10.00
2023-01-04T00:38:41.450Z,10.10
2023-01-04T00:41:23.161Z,10.10
2023-01-04T00:43:57.134Z,10.10
2023-01-04T00:46:23.883Z,10.10
2023-01-04T00:48:51.802Z,10.10
2023-01-04T00:51:22.059Z,10.10
2023-01-04T00:53:48.763Z,10.10
2023-01-04T00:56:28.225Z,10.10
2023-01-04T00:59:00.069Z,10.10
2023-01-04T01:01:28.346Z,10.10
2023-01-04T01:04:03.257Z,10.20
2023-01-04T01:06:31.448Z,10.20
2023-01-04T01:08:58.976Z,10.20
2023-01-04T01:11:26.167Z,10.20
2023-01-04T01:13:55.828Z,10.30
2023-01-04T01:16:51.988Z,10.30
2023-01-04T01:19:11.324Z,10.30
2023-01-04T01:21:39.766Z,10.30
2023-01-04T01:24:07.065Z,10.40
2023-01-04T01:26:34.131Z,10.30
2023-01-04T01:29:00.916Z,10.30
2023-01-04T01:31:29.102Z,10.30
2023-01-04T01:33:57.556Z,10.30
2023-01-04T01:36:26.335Z,10.30
2023-01-04T01:38:53.748Z,10.30
2023-01-04T01:41:32.098Z,10.20
2023-01-04T01:44:07.026Z,10.30
2023-01-04T01:46:50.509Z,10.30
2023-01-04T01:49:32.061Z,10.20
2023-01-04T01:52:02.309Z,10.20
2023-01-04T01:54:37.250Z,10.30
2023-01-04T01:57:07.302Z,10.20
2023-01-04T01:59:40.724Z,10.20
2023-01-04T02:02:07.730Z,10.30
2023-01-04T02:04:37.597Z,10.20
2023-01-04T02:07:04.979Z,10.20
2023-01-04T02:09:33.428Z,10.20
2023-01-04T02:12:00.177Z,10.20
2023-01-04T02:14:27.086Z,10.10
2023-01-04T02:17:02.611Z,10.20
2023-01-04T02:20:00.454Z,10.20
2023-01-04T02:23:04.725Z,10.20
2023-01-04T02:25:54.551Z,10.10
2023-01-04T02:28:30.130Z,10.20
2023-01-04T02:31:14.229Z,10.10
2023-01-04T02:33:45.781Z,10.20
2023-01-04T02:36:16.596Z,10.10
2023-01-04T02:38:49.114Z,10.10
2023-01-04T02:41:24.692Z,10.10
2023-01-04T02:44:20.416Z,10.20
2023-01-04T02:47:04.528Z,10.10
2023-01-04T02:49:50.031Z,10.20
2023-01-04T02:52:17.390Z,10.20
2023-01-04T02:54:46.392Z,10.10
2023-01-04T02:57:44.566Z,10.10
2023-01-04T03:01:00.659Z,10.10
2023-01-04T03:04:04.517Z,10.10
2023-01-04T03:06:46.979Z,10.20
2023-01-04T03:09:19.637Z,10.10
2023-01-04T03:12:12.147Z,10.10
2023-01-04T03:14:52.250Z,10.10
2023-01-04T03:17:24.154Z,10.10
2023-01-04T03:19:55.513Z,10.10
2023-01-04T03:22:54.875Z,10.10
2023-01-04T03:25:48.072Z,10.10
2023-01-04T03:28:36.110Z,10.10
2023-01-04T03:31:38.886Z,10.10
2023-01-04T03:34:25.001Z,10.10
2023-01-04T03:36:55.834Z,10.10
2023-01-04T03:40:02.961Z,10.10
2023-01-04T03:43:02.442Z,10.10
2023-01-04T03:45:58.026Z,10.00
2023-01-04T03:48:40.295Z,10.00
2023-01-04T03:51:21.796Z,10.00
2023-01-04T03:54:09.505Z,10.00
2023-01-04T03:56:41.843Z,10.00
2023-01-04T03:59:10.131Z,10.00
2023-01-04T04:01:37.972Z,9.90
2023-01-04T04:04:24.132Z,10.00
2023-01-04T04:07:09.559Z,10.00
2023-01-04T04:09:36.276Z,9.90
2023-01-04T04:12:04.124Z,10.00
2023-01-04T04:14:31.880Z,9.90
2023-01-04T04:16:59.899Z,9.90
2023-01-04T04:19:26.640Z,9.90
2023-01-04T04:21:53.750Z,9.90
2023-01-04T04:24:24.659Z,10.00
2023-01-04T04:26:54.427Z,10.00
2023-01-04T04:29:21.936Z,10.00
2023-01-04T04:31:51.999Z,10.00
2023-01-04T04:34:20.081Z,10.00
2023-01-04T04:36:46.861Z,10.00
2023-01-04T04:39:13.954Z,10.00
2023-01-04T04:41:43.053Z,10.00
2023-01-04T04:44:18.415Z,10.00
2023-01-04T04:46:46.381Z,10.00
2023-01-04T04:49:16.359Z,10.00
2023-01-04T04:51:44.499Z,10.00
2023-01-04T04:54:14.811Z,10.00
2023-01-04T04:56:42.590Z,10.00
2023-01-04T04:59:09.471Z,10.10
2023-01-04T05:01:36.294Z,10.10
2023-01-04T05:04:03.222Z,10.10
2023-01-04T05:06:30.402Z,10.10
2023-01-04T05:08:57.142Z,10.10
2023-01-04T05:11:42.274Z,10.10
2023-01-04T05:14:10.060Z,10.10
2023-01-04T05:16:37.266Z,10.10
2023-01-04T05:19:05.111Z,10.20
2023-01-04T05:21:31.852Z,10.10
2023-01-04T05:23:58.607Z,10.10
2023-01-04T05:26:25.625Z,10.20
2023-01-04T05:28:54.074Z,10.20
2023-01-04T05:31:21.925Z,10.20
2023-01-04T05:33:50.083Z,10.20
2023-01-04T05:36:16.796Z,10.20
2023-01-04T05:38:44.165Z,10.20
2023-01-04T05:41:29.412Z,10.20
2023-01-04T05:43:57.290Z,10.30
2023-01-04T05:46:24.281Z,10.30
2023-01-04T05:48:51.068Z,10.30
2023-01-04T05:51:19.161Z,10.20
2023-01-04T05:53:46.940Z,10.30
2023-01-04T05:56:13.650Z,10.20
2023-01-04T05:58:40.440Z,10.20
2023-01-04T06:01:09.384Z,10.10
2023-01-04T06:03:36.239Z,10.20
2023-01-04T06:06:03.089Z,10.20
2023-01-04T06:08:32.108Z,10.20
2023-01-04T06:10:58.830Z,10.20
2023-01-04T06:13:25.602Z,10.20
2023-01-04T06:15:52.367Z,10.20
2023-01-04T06:18:19.050Z,10.20
2023-01-04T06:20:45.737Z,10.20
2023-01-04T06:23:12.519Z,10.20
2023-01-04T06:25:39.320Z,10.30
2023-01-04T06:28:07.253Z,10.20
2023-01-04T06:30:34.953Z,10.30
2023-01-04T06:33:02.389Z,10.20
2023-01-04T06:35:29.569Z,10.30
2023-01-04T06:37:56.249Z,10.20
2023-01-04T06:40:23.413Z,10.20
2023-01-04T06:42:50.641Z,10.20
2023-01-04T06:45:17.479Z,10.30
2023-01-04T06:47:44.256Z,10.30
2023-01-04T06:50:12.855Z,10.20
2023-01-04T06:52:39.831Z,10.30
2023-01-04T06:55:09.549Z,10.30
2023-01-04T06:57:36.490Z,10.30
2023-01-04T07:00:06.170Z,10.30
2023-01-04T07:02:35.470Z,10.40
2023-01-04T07:05:03.018Z,10.30
2023-01-04T07:07:29.862Z,10.30
2023-01-04T07:09:56.651Z,10.20
2023-01-04T07:12:24.431Z,10.30
2023-01-04T07:14:51.339Z,10.30
2023-01-04T07:17:22.419Z,10.30
2023-01-04T07:19:51.883Z,10.20
2023-01-04T07:22:18.905Z,10.30
2023-01-04T07:24:48.997Z,10.30
2023-01-04T07:27:17.081Z,10.30
2023-01-04T07:29:44.610Z,10.30
2023-01-04T07:32:14.238Z,10.30
2023-01-04T07:34:41.569Z,10.30
2023-01-04T07:37:09.698Z,10.30
2023-01-04T07:39:36.523Z,10.40
2023-01-04T07:42:05.644Z,10.30
2023-01-04T07:44:32.489Z,10.30
2023-01-04T07:47:00.842Z,10.40
2023-01-04T07:49:27.829Z,10.40
2023-01-04T07:51:54.588Z,10.30
2023-01-04T07:54:24.510Z,10.40
2023-01-04T07:56:52.869Z,10.40
2023-01-04T07:59:21.831Z,10.40
2023-01-04T08:01:50.224Z,10.50
2023-01-04T08:04:18.818Z,10.50
2023-01-04T08:06:50.578Z,10.40
2023-01-04T08:09:20.600Z,10.50
2023-01-04T08:11:47.591Z,10.50
2023-01-04T08:14:14.359Z,10.50
2023-01-04T08:16:43.797Z,10.50
2023-01-04T08:19:20.956Z,10.50
2023-01-04T08:21:48.786Z,10.50
2023-01-04T08:24:18.464Z,10.50
2023-01-04T08:26:45.904Z,10.50
2023-01-04T08:29:13.541Z,10.60
2023-01-04T08:31:40.968Z,10.60
2023-01-04T08:34:09.598Z,10.60
2023-01-04T08:36:45.523Z,10.70
2023-01-04T08:39:12.266Z,10.70
2023-01-04T08:42:04.129Z,10.70
2023-01-04T08:44:31.908Z,10.70
2023-01-04T08:47:00.796Z,10.80
2023-01-04T08:49:27.993Z,10.80
2023-01-04T08:51:54.881Z,10.80
2023-01-04T08:54:23.076Z,10.90
2023-01-04T08:56:49.853Z,10.90
2023-01-04T08:59:16.661Z,10.90
2023-01-04T09:01:43.531Z,10.90
2023-01-04T09:04:10.909Z,11.00
2023-01-04T09:06:38.535Z,11.00
2023-01-04T09:09:05.786Z,11.10
2023-01-04T09:11:33.041Z,11.10
2023-01-04T09:14:09.325Z,11.10
2023-01-04T09:16:38.223Z,11.20
2023-01-04T09:19:06.019Z,11.20
2023-01-04T09:21:33.024Z,11.20
2023-01-04T09:23:59.909Z,11.30
2023-01-04T09:26:26.892Z,11.30
2023-01-04T09:28:56.389Z,11.30
2023-01-04T09:31:28.914Z,11.30
2023-01-04T09:34:13.997Z,11.40
2023-01-04T09:36:41.442Z,11.40
2023-01-04T09:39:11.860Z,11.50
2023-01-04T09:41:52.964Z,11.50
2023-01-04T09:47:40.592Z,11.60
2023-01-04T09:50:27.628Z,11.70
2023-01-04T09:52:54.445Z,11.70
2023-01-04T09:55:37.336Z,11.70
2023-01-04T09:58:16.573Z,11.80
2023-01-04T10:00:48.010Z,11.90
2023-01-04T10:03:25.790Z,12.00
2023-01-04T10:05:55.555Z,12.00
2023-01-04T10:08:23.051Z,12.00
2023-01-04T10:10:55.343Z,12.10
2023-01-04T10:13:40.898Z,12.10
2023-01-04T10:16:30.461Z,12.10
2023-01-04T10:21:10.249Z,12.10
2023-01-04T10:22:26.003Z,12.10
2023-01-04T10:25:11.607Z,12.20
2023-01-04T10:27:43.070Z,12.20
2023-01-04T10:30:46.621Z,12.30
2023-01-04T10:33:18.139Z,12.30
2023-01-04T10:35:46.022Z,12.30
2023-01-04T10:38:20.054Z,12.30
2023-01-04T10:40:48.674Z,12.30
2023-01-04T10:43:28.335Z,12.40
2023-01-04T10:46:15.678Z,12.40
2023-01-04T10:48:58.885Z,12.40
2023-01-04T10:51:34.328Z,12.50
2023-01-04T10:54:19.396Z,12.50
2023-01-04T10:57:05.213Z,12.50
2023-01-04T10:59:43.214Z,12.50
2023-01-04T11:02:22.139Z,12.50
2023-01-04T11:05:13.274Z,12.50
2023-01-04T11:08:00.891Z,12.50
2023-01-04T11:10:49.326Z,12.50
2023-01-04T11:13:16.471Z,12.50
2023-01-04T11:15:45.351Z,12.50
2023-01-04T11:18:14.192Z,12.60
2023-01-04T11:20:42.360Z,12.60
2023-01-04T11:23:22.741Z,12.50
2023-01-04T11:25:56.526Z,12.50
2023-01-04T11:28:46.077Z,12.50
2023-01-04T11:31:23.422Z,12.50
2023-01-04T11:34:01.843Z,12.40
2023-01-04T11:36:31.740Z,12.40
2023-01-04T11:38:59.009Z,12.40
2023-01-04T11:41:26.430Z,12.30
2023-01-04T11:43:58.632Z,12.30
2023-01-04T11:46:27.433Z,12.30
2023-01-04T11:48:55.090Z,12.30
2023-01-04T11:51:27.593Z,12.30
2023-01-04T11:54:05.797Z,12.40
2023-01-04T11:56:37.077Z,12.40
2023-01-04T11:59:06.086Z,12.30
2023-01-04T12:01:37.769Z,12.40
2023-01-04T12:04:11.949Z,12.40
2023-01-04T12:06:40.943Z,12.40
2023-01-04T12:09:14.639Z,12.50
2023-01-04T12:12:04.964Z,12.50
2023-01-04T12:14:37.029Z,12.50
2023-01-04T12:17:20.578Z,12.50
2023-01-04T12:19:49.140Z,12.60
2023-01-04T12:22:30.489Z,12.60
2023-01-04T12:25:00.788Z,12.60
2023-01-04T12:27:28.714Z,12.60
2023-01-04T12:30:03.911Z,12.60
2023-01-04T12:32:32.018Z,12.70
2023-01-04T12:34:58.952Z,12.70
2023-01-04T12:37:48.703Z,12.70
2023-01-04T12:40:46.786Z,12.70
2023-01-04T12:43:17.476Z,12.70
2023-01-04T12:46:08.385Z,12.70
2023-01-04T12:48:53.781Z,12.70
2023-01-04T12:51:32.126Z,12.70
2023-01-04T12:54:05.591Z,12.80
2023-01-04T12:57:10.522Z,12.80
2023-01-04T12:59:52.346Z,12.80
2023-01-04T13:02:29.297Z,12.80
2023-01-04T13:08:12.733Z,12.90
2023-01-04T13:10:48.996Z,13.00
2023-01-04T13:13:51.321Z,13.00
2023-01-04T13:16:30.695Z,13.00
2023-01-04T13:18:59.678Z,13.00
2023-01-04T13:21:34.441Z,13.10
2023-01-04T13:24:05.145Z,13.10
2023-01-04T13:26:31.891Z,13.10
2023-01-04T13:29:23.464Z,13.10
2023-01-04T13:31:53.673Z,13.10
2023-01-04T13:34:27.538Z,13.10
2023-01-04T13:37:07.233Z,13.10
2023-01-04T13:39:35.771Z,13.10
2023-01-04T13:42:03.195Z,13.10
2023-01-04T13:45:20.777Z,13.10
2023-01-04T13:47:55.575Z,13.20
2023-01-04T13:50:31.225Z,13.20
2023-01-04T13:53:08.027Z,13.20
2023-01-04T13:55:40.201Z,13.20
2023-01-04T13:58:18.196Z,13.20
2023-01-04T14:00:46.711Z,13.20
2023-01-04T14:03:29.044Z,13.20
2023-01-04T14:06:04.700Z,13.20
2023-01-04T14:08:55.506Z,13.20
2023-01-04T14:14:58.690Z,13.30
2023-01-04T14:17:56.979Z,13.30
2023-01-04T14:20:23.625Z,13.30
2023-01-04T14:22:56.182Z,13.40
2023-01-04T14:25:38.330Z,13.40
2023-01-04T14:28:41.760Z,13.30
2023-01-04T14:31:20.549Z,13.30
2023-01-04T14:33:51.111Z,13.40
2023-01-04T14:36:27.510Z,13.40
2023-01-04T14:38:57.048Z,13.40
2023-01-04T14:41:32.749Z,13.40
2023-01-04T14:44:14.876Z,13.40
2023-01-04T14:46:46.209Z,13.50
2023-01-04T14:49:13.805Z,13.40
2023-01-04T14:51:47.412Z,13.40
2023-01-04T14:54:20.413Z,13.40
2023-01-04T14:56:51.464Z,13.40
2023-01-04T14:59:18.325Z,13.40
2023-01-04T15:01:46.684Z,13.40
2023-01-04T15:04:13.636Z,13.40
2023-01-04T15:06:48.837Z,13.40
2023-01-04T15:09:16.675Z,13.40
2023-01-04T15:11:43.461Z,13.40
2023-01-04T15:14:10.295Z,13.40
2023-01-04T15:16:37.174Z,13.40
2023-01-04T15:19:05.263Z,13.40
2023-01-04T15:24:08.277Z,13.40
2023-01-04T15:26:35.415Z,13.40
2023-01-04T15:29:02.256Z,13.40
2023-01-04T15:31:36.668Z,13.40
2023-01-04T15:34:06.567Z,13.40
2023-01-04T15:36:35.114Z,13.40
2023-01-04T15:39:01.856Z,13.40
2023-01-04T15:41:47.059Z,13.40
2023-01-04T15:44:13.745Z,13.40
2023-01-04T15:46:40.722Z,13.40
2023-01-04T15:49:11.886Z,13.40
2023-01-04T15:51:42.226Z,13.40
2023-01-04T15:54:10.777Z,13.40
2023-01-04T15:56:39.088Z,13.30
2023-01-04T15:59:05.944Z,13.40
2023-01-04T16:01:33.978Z,13.40
2023-01-04T16:04:01.810Z,13.40
2023-01-04T16:06:30.627Z,13.40
2023-01-04T16:08:59.884Z,13.40
2023-01-04T16:11:30.233Z,13.40
2023-01-04T16:13:56.922Z,13.40
2023-01-04T16:16:29.700Z,13.40
2023-01-04T16:18:57.507Z,13.40
2023-01-04T16:21:27.423Z,13.50
2023-01-04T16:24:03.979Z,13.50
2023-01-04T16:26:33.849Z,13.50
2023-01-04T16:29:00.919Z,13.50
2023-01-04T16:31:37.165Z,13.50
2023-01-04T16:34:04.793Z,13.50
2023-01-04T16:36:31.811Z,13.50
2023-01-04T16:39:01.343Z,13.50
2023-01-04T16:41:28.164Z,13.50
2023-01-04T16:43:58.937Z,13.50
2023-01-04T16:46:35.085Z,13.50
2023-01-04T16:49:21.283Z,13.50
2023-01-04T16:51:49.142Z,13.50
2023-01-04T16:54:19.945Z,13.50
2023-01-04T16:56:50.649Z,13.50
2023-01-04T16:59:20.075Z,13.50
2023-01-04T17:01:55.701Z,13.50
2023-01-04T17:04:24.750Z,13.50
2023-01-04T17:06:54.889Z,13.50
2023-01-04T17:09:27.317Z,13.50
2023-01-04T17:12:46.362Z,13.40
2023-01-04T17:14:44.218Z,13.50
2023-01-04T17:17:10.997Z,13.50
2023-01-04T17:19:37.802Z,13.50
2023-01-04T17:22:05.718Z,13.50
2023-01-04T17:24:32.653Z,13.50
2023-01-04T17:26:59.428Z,13.60
2023-01-04T17:29:27.630Z,13.60
2023-01-04T17:31:54.406Z,13.70
2023-01-04T17:34:23.152Z,13.70
2023-01-04T17:36:52.683Z,13.70
2023-01-04T17:39:20.983Z,13.80
2023-01-04T17:41:47.801Z,13.90
2023-01-04T17:44:15.812Z,13.90
2023-01-04T17:46:44.766Z,13.90
2023-01-04T17:49:31.851Z,13.90
2023-01-04T17:51:59.795Z,13.90
2023-01-04T17:54:27.207Z,13.90
2023-01-04T17:56:54.609Z,14.00
2023-01-04T17:59:21.318Z,14.00
2023-01-04T18:01:48.579Z,14.00
2023-01-04T18:04:17.227Z,14.00
2023-01-04T18:06:45.275Z,14.00
2023-01-04T18:09:15.493Z,14.00
2023-01-04T18:11:46.369Z,13.90
2023-01-04T18:14:14.674Z,14.00
2023-01-04T18:16:57.951Z,14.00
2023-01-04T18:19:27.926Z,13.90
2023-01-04T18:21:55.192Z,13.90
2023-01-04T18:24:36.272Z,13.90
2023-01-04T18:27:22.674Z,14.00
2023-01-04T18:29:52.057Z,14.00
2023-01-04T18:32:19.927Z,14.10
2023-01-04T18:34:46.717Z,14.10
2023-01-04T18:37:14.484Z,14.00
2023-01-04T18:39:43.739Z,14.00
2023-01-04T18:42:10.481Z,14.10
2023-01-04T18:44:47.854Z,14.00
2023-01-04T18:47:17.442Z,14.00
2023-01-04T18:49:44.261Z,14.00
2023-01-04T18:52:12.050Z,13.90
2023-01-04T18:54:38.815Z,13.90
2023-01-04T18:57:06.654Z,13.90
2023-01-04T18:59:35.062Z,14.00
2023-01-04T19:02:02.915Z,13.90
2023-01-04T19:04:36.225Z,13.90
2023-01-04T19:07:02.958Z,13.90
2023-01-04T19:09:30.592Z,13.90
2023-01-04T19:11:57.345Z,13.90
2023-01-04T19:14:24.206Z,14.00
2023-01-04T19:16:53.138Z,13.90
2023-01-04T19:19:20.136Z,14.00
2023-01-04T19:21:47.896Z,14.00
2023-01-04T19:24:14.622Z,14.00
2023-01-04T19:26:41.293Z,13.90
2023-01-04T19:29:08.904Z,14.00
2023-01-04T19:31:36.097Z,13.90
2023-01-04T19:34:03.128Z,13.90
2023-01-04T19:36:37.086Z,13.90
2023-01-04T19:39:09.286Z,13.90
2023-01-04T19:41:38.085Z,13.90
2023-01-04T19:44:07.679Z,13.90
2023-01-04T19:46:37.899Z,14.00
2023-01-04T19:49:08.157Z,13.90
2023-01-04T19:51:42.969Z,14.00
2023-01-04T19:54:10.103Z,14.00
2023-01-04T19:56:36.856Z,14.00
2023-01-04T19:59:10.375Z,14.00
2023-01-04T20:01:41.558Z,14.00
2023-01-04T20:04:08.554Z,14.10
2023-01-04T20:06:35.701Z,14.00
2023-01-04T20:09:03.729Z,14.00
2023-01-04T20:11:30.821Z,14.00
2023-01-04T20:13:57.776Z,14.10
2023-01-04T20:16:24.516Z,14.10
2023-01-04T20:18:54.900Z,14.10
2023-01-04T20:21:21.606Z,14.10
2023-01-04T20:23:48.329Z,14.10
2023-01-04T20:26:16.799Z,14.10
2023-01-04T20:28:45.833Z,14.10
2023-01-04T20:31:15.375Z,14.10
2023-01-04T20:33:42.280Z,14.10
2023-01-04T20:36:17.884Z,14.10
2023-01-04T20:38:46.575Z,14.10
2023-01-04T20:41:19.051Z,14.10
2023-01-04T20:43:47.203Z,14.10
2023-01-04T20:46:17.138Z,14.10
2023-01-04T20:48:44.883Z,14.10
2023-01-04T20:51:15.777Z,14.20
2023-01-04T20:53:43.011Z,14.10
2023-01-04T20:56:18.185Z,14.10
2023-01-04T20:58:46.667Z,14.10
2023-01-04T21:01:14.391Z,14.20
2023-01-04T21:03:41.646Z,14.20
2023-01-04T21:06:12.366Z,14.10
2023-01-04T21:08:40.638Z,14.10
2023-01-04T21:11:08.635Z,14.10
2023-01-04T21:13:35.429Z,14.10
2023-01-04T21:16:02.296Z,14.10
2023-01-04T21:18:29.052Z,14.10
2023-01-04T21:20:56.174Z,14.10
2023-01-04T21:23:26.211Z,14.10
2023-01-04T21:25:53.840Z,14.10
2023-01-04T21:28:22.253Z,14.10
2023-01-04T21:30:50.107Z,14.10
2023-01-04T21:33:18.809Z,14.10
2023-01-04T21:35:45.742Z,14.10
2023-01-04T21:38:12.570Z,14.10
2023-01-04T21:40:40.728Z,14.20
2023-01-04T21:43:08.653Z,14.10
2023-01-04T21:45:39.821Z,14.20
2023-01-04T21:48:06.956Z,14.20
2023-01-04T21:50:34.151Z,14.20
2023-01-04T21:53:02.213Z,14.20
2023-01-04T21:55:34.174Z,14.30
2023-01-04T21:58:04.360Z,14.20
2023-01-04T22:00:31.094Z,14.20
2023-01-04T22:03:00.415Z,14.20
2023-01-04T22:05:28.740Z,14.30
2023-01-04T22:07:55.830Z,14.30
2023-01-04T22:10:22.726Z,14.30
2023-01-04T22:12:50.414Z,14.20
2023-01-04T22:15:17.343Z,14.30
2023-01-04T22:17:46.271Z,14.20
2023-01-04T22:20:13.020Z,14.30
2023-01-04T22:22:39.699Z,14.30
2023-01-04T22:25:07.739Z,14.20
2023-01-04T22:27:34.650Z,14.20
2023-01-04T22:30:04.199Z,14.20
2023-01-04T22:32:30.948Z,14.20
2023-01-04T22:34:57.687Z,14.20
2023-01-04T22:37:24.522Z,14.30
2023-01-04T22:39:51.287Z,14.20
2023-01-04T22:42:17.957Z,14.20
2023-01-04T22:44:44.654Z,14.20
2023-01-04T22:47:11.794Z,14.20
2023-01-04T22:49:38.555Z,14.20
2023-01-04T22:52:05.296Z,14.20
2023-01-04T22:54:33.105Z,14.20
2023-01-04T22:57:00.355Z,14.20
2023-01-04T22:59:27.180Z,14.20
2023-01-04T23:01:54.136Z,14.20
2023-01-04T23:04:21.332Z,14.20
2023-01-04T23:06:48.148Z,14.20
2023-01-04T23:09:17.244Z,14.20
2023-01-04T23:11:44.309Z,14.20
2023-01-04T23:14:16.271Z,14.10
2023-01-04T23:16:44.643Z,14.10
2023-01-04T23:19:13.263Z,14.00
2023-01-04T23:21:40.750Z,14.10
2023-01-04T23:24:07.899Z,14.00
2023-01-04T23:26:36.929Z,14.00
2023-01-04T23:29:04.001Z,14.10
2023-01-04T23:31:32.285Z,14.10
2023-01-04T23:34:01.587Z,14.10
2023-01-04T23:36:31.165Z,14.00
2023-01-04T23:39:00.804Z,14.00
2023-01-04T23:41:46.865Z,14.00
2023-01-04T23:44:25.014Z,14.00
2023-01-04T23:47:00.497Z,13.90
2023-01-04T23:49:30.376Z,13.90
2023-01-04T23:51:57.382Z,13.90
2023-01-04T23:54:24.445Z,13.90
2023-01-04T23:56:51.480Z,13.90
2023-01-04T23:59:18.533Z,13.90
